DATI METEO

Data Temp. Min Temp. Med Temp. Max Umid. Min Umid. Med Umid. Max Pioggia Neve Neve Max Giorn. Neve Max Evento Raffica Vento med Dir vento Pressione Radiazione Med
31/01/2017 -1,2 2,2 5,7 8 94 99 0,00 . . . 6,4 0,6 SE 1019,0 .
30/01/2017 -0,5 2,6 7,1 4 91 99 0,00 . . . 13,6 0,7 W 1020,0 .
29/01/2017 -1,3 1,5 5,0 83 90 95 0,00 . . . 10,8 1,2 SE 1022,0 .
28/01/2017 0,2 2,0 3,3 70 81 87 0,00 . . . 7,2 1,1 SE 1023,0 .
27/01/2017 -0,4 1,9 4,6 53 66 73 0,00 . . . 7,2 0,6 SE 1027,0 .
26/01/2017 -3,1 1,3 5,5 49 64 75 0,00 . . . 8,6 0,8 N 1025,0 .
25/01/2017 0,0 3,7 10,1 14 51 64 0,00 . . . 7,9 0,9 SE 1021,0 .
24/01/2017 -2,4 3,7 10,9 21 47 63 0,00 . . . 7,2 0,9 SE 1016,0 .
23/01/2017 -3,4 2,3 9,4 24 51 70 0,00 . . . 14,4 1,0 SE 1020,0 .
22/01/2017 -4,9 1,1 8,8 22 57 86 0,00 . . . 7,9 0,6 SE 1026,0 .
21/01/2017 -4,8 0,1 7,4 36 63 75 0,00 . . . 6,4 0,4 SE 1028,0 .
20/01/2017 -5,3 0,0 7,1 39 60 72 0,00 . . . 6,4 0,4 SE 1029,0 .
19/01/2017 -3,9 0,3 6,2 30 55 68 0,00 . . . 10,8 0,9 SE 1028,0 .
18/01/2017 -4,7 0,7 6,0 15 44 60 0,00 . . . 8,6 0,9 SE 1023,0 .
17/01/2017 -2,2 0,6 3,6 9 30 62 0,00 . . . 12,9 2,7 NW 1017,0 .
16/01/2017 -4,9 0,4 6,4 5 34 58 0,00 . . . 14,4 1,5 SE 1013,0 .
15/01/2017 -2,3 2,7 8,5 2 26 48 0,00 . . . 15,8 1,5 SE 1015,0 .
14/01/2017 -3,6 2,2 7,0 5 45 68 0,00 . . . 29,5 2,2 SE 1008,0 .
13/01/2017 -2,0 2,3 8,2 5 56 89 1,00 . . . 39,6 7,1 W 998,0 .
12/01/2017 -2,5 -0,4 1,0 73 80 88 0,50 . . . 10,0 1,3 SE 1016,0 .
11/01/2017 -2,0 -1,1 -0,5 68 79 87 0,00 . . . 6,4 0,3 SE 1018,0 .
10/01/2017 -1,8 -0,6 1,0 64 75 86 0,00 . . 5,0 12,9 1,7 N 1012,0 .
09/01/2017 -6,0 -1,5 5,7 42 66 75 0,00 . . . 10,0 1,1 SE 1018,0 .
08/01/2017 -4,9 -2,0 3,1 36 60 72 0,00 . . . 6,4 0,3 SE 1020,0 .
07/01/2017 -5,8 -2,1 3,0 34 53 70 0,00 . . . 7,9 0,4 SE 1026,0 .
06/01/2017 -4,5 0,6 5,5 10 41 61 0,00 . . . 12,2 1,6 SE 1025,0 .
05/01/2017 -1,3 5,0 10,3 1 34 54 0,00 . . . 23,7 3,8 N 1014,0 .
04/01/2017 -1,8 2,8 8,9 44 69 85 0,00 . . . 12,9 2,2 SE 1009,0 .
03/01/2017 -1,0 3,3 9,8 39 66 81 0,00 . . . 9,3 1,2 W 1020,0 .
02/01/2017 -1,5 2,3 7,3 49 66 82 0,00 . . . 7,9 0,9 W 1017,0 .
01/01/2017 -3,0 1,9 9,9 46 76 88 1,25 . . . 4,3 0,2 SE 1020,0 .
I dati sono forniti dalla Stazione Meteo Livorno Ferraris.
La centralina è ubicata in Via Cortellia
Si ringrazia il sig. Ferrari Pierdomenico per la collaborazione nel fornirci i dati.

E' possibile scaricare i dati caricati su un foglio di excell cliccando sotto:


I dati della Stazione Meteo Livorno Ferraris possono essere visti al seguente linK:

Meteo Livorno Ferraris